createdAt,value
2023-04-15T00:01:20.240Z,5.60
2023-04-15T00:03:48.989Z,5.57
2023-04-15T00:06:17.225Z,5.57
2023-04-15T00:08:45.179Z,5.56
2023-04-15T00:11:13.914Z,5.50
2023-04-15T00:13:42.794Z,5.42
2023-04-15T00:16:11.216Z,5.36
2023-04-15T00:18:39.195Z,5.33
2023-04-15T00:21:07.293Z,5.28
2023-04-15T00:23:35.245Z,5.29
2023-04-15T00:26:03.993Z,5.30
2023-04-15T00:28:32.453Z,5.34
2023-04-15T00:31:00.802Z,5.32
2023-04-15T00:33:28.842Z,5.32
2023-04-15T00:35:56.819Z,5.28
2023-04-15T00:38:24.819Z,5.22
2023-04-15T00:40:52.807Z,5.20
2023-04-15T00:43:20.890Z,5.25
2023-04-15T00:45:48.836Z,5.23
2023-04-15T00:48:17.013Z,5.19
2023-04-15T00:50:45.040Z,5.16
2023-04-15T00:53:13.805Z,5.13
2023-04-15T00:55:41.725Z,5.13
2023-04-15T00:58:09.790Z,5.07
2023-04-15T01:00:37.938Z,5.02
2023-04-15T01:03:06.125Z,5.01
2023-04-15T01:05:34.205Z,5.00
2023-04-15T01:08:02.431Z,4.99
2023-04-15T01:10:30.582Z,4.96
2023-04-15T01:12:58.516Z,4.94
2023-04-15T01:15:26.463Z,4.85
2023-04-15T01:17:54.511Z,4.84
2023-04-15T01:20:23.513Z,4.80
2023-04-15T01:22:51.555Z,4.77
2023-04-15T01:25:20.957Z,4.75
2023-04-15T01:30:14.436Z,4.75
2023-04-15T01:32:43.078Z,4.74
2023-04-15T01:35:11.402Z,4.70
2023-04-15T01:37:39.389Z,4.70
2023-04-15T01:40:08.166Z,4.69
2023-04-15T01:42:37.949Z,4.68
2023-04-15T01:45:06.600Z,4.70
2023-04-15T01:47:35.073Z,4.64
2023-04-15T01:50:03.187Z,4.60
2023-04-15T01:52:31.775Z,4.55
2023-04-15T01:54:59.688Z,4.53
2023-04-15T01:57:27.769Z,4.51
2023-04-15T01:59:55.783Z,4.50
2023-04-15T02:02:24.232Z,4.51
2023-04-15T02:04:52.475Z,4.47
2023-04-15T02:07:20.988Z,4.46
2023-04-15T02:09:49.041Z,4.43
2023-04-15T02:12:16.948Z,4.44
2023-04-15T02:14:44.870Z,4.44
2023-04-15T02:17:13.091Z,4.42
2023-04-15T02:19:41.872Z,4.45
2023-04-15T02:22:10.631Z,4.51
2023-04-15T02:24:38.651Z,4.49
2023-04-15T02:27:06.580Z,4.45
2023-04-15T02:29:34.703Z,4.45
2023-04-15T02:32:03.029Z,4.46
2023-04-15T02:34:31.029Z,4.42
2023-04-15T02:36:59.219Z,4.40
2023-04-15T02:39:27.257Z,4.37
2023-04-15T02:41:55.169Z,4.31
2023-04-15T02:44:24.771Z,4.27
2023-04-15T02:46:53.988Z,4.28
2023-04-15T02:49:22.503Z,4.26
2023-04-15T02:51:51.106Z,4.22
2023-04-15T02:54:22.108Z,4.20
2023-04-15T02:56:51.326Z,4.17
2023-04-15T02:59:19.215Z,4.15
2023-04-15T03:01:47.255Z,4.11
2023-04-15T03:04:15.583Z,4.09
2023-04-15T03:06:43.920Z,4.07
2023-04-15T03:09:11.900Z,4.05
2023-04-15T03:11:42.038Z,4.03
2023-04-15T03:14:10.032Z,3.99
2023-04-15T03:16:38.013Z,3.95
2023-04-15T03:19:06.026Z,3.94
2023-04-15T03:21:33.919Z,3.93
2023-04-15T03:24:02.229Z,3.97
2023-04-15T03:26:30.751Z,3.96
2023-04-15T03:28:58.972Z,3.92
2023-04-15T03:31:27.360Z,3.90
2023-04-15T03:33:55.432Z,3.87
2023-04-15T03:36:23.440Z,3.84
2023-04-15T03:38:51.520Z,3.79
2023-04-15T03:41:19.568Z,3.82
2023-04-15T03:43:47.530Z,3.84
2023-04-15T03:46:15.486Z,3.87
2023-04-15T03:48:43.525Z,3.85
2023-04-15T03:51:11.611Z,3.79
2023-04-15T03:53:39.595Z,3.76
2023-04-15T03:56:07.808Z,3.75
2023-04-15T03:58:35.930Z,3.68
2023-04-15T04:01:03.937Z,3.66
2023-04-15T04:03:32.309Z,3.66
2023-04-15T04:06:01.183Z,3.62
2023-04-15T04:08:29.092Z,3.64
2023-04-15T04:10:57.622Z,3.68
2023-04-15T04:13:25.643Z,3.71
2023-04-15T04:15:53.626Z,3.71
2023-04-15T04:18:21.978Z,3.67
2023-04-15T04:20:50.004Z,3.70
2023-04-15T04:23:17.952Z,3.69
2023-04-15T04:25:45.935Z,3.65
2023-04-15T04:28:13.904Z,3.66
2023-04-15T04:30:41.902Z,3.66
2023-04-15T04:33:09.856Z,3.69
2023-04-15T04:35:39.003Z,3.72
2023-04-15T04:38:07.001Z,3.76
2023-04-15T04:40:34.916Z,3.79
2023-04-15T04:43:03.034Z,3.75
2023-04-15T04:45:31.085Z,3.72
2023-04-15T04:47:59.221Z,3.67
2023-04-15T04:50:27.415Z,3.68
2023-04-15T04:52:55.368Z,3.68
2023-04-15T04:55:23.379Z,3.68
2023-04-15T04:57:51.364Z,3.75
2023-04-15T05:00:20.520Z,3.77
2023-04-15T05:02:48.857Z,3.81
2023-04-15T05:05:17.585Z,3.86
2023-04-15T05:07:45.575Z,3.94
2023-04-15T05:10:13.615Z,4.03
2023-04-15T05:12:41.781Z,4.10
2023-04-15T05:15:10.475Z,4.18
2023-04-15T05:17:38.624Z,4.26
2023-04-15T05:20:07.109Z,4.33
2023-04-15T05:22:35.141Z,4.43
2023-04-15T05:25:03.266Z,4.49
2023-04-15T05:27:31.312Z,4.51
2023-04-15T05:29:59.338Z,4.57
2023-04-15T05:32:27.732Z,4.62
2023-04-15T05:34:55.757Z,4.68
2023-04-15T05:37:23.786Z,4.76
2023-04-15T05:39:51.783Z,4.82
2023-04-15T05:42:19.709Z,4.87
2023-04-15T05:44:48.060Z,4.92
2023-04-15T05:47:16.130Z,4.99
2023-04-15T05:49:44.100Z,5.03
2023-04-15T05:52:12.449Z,5.13
2023-04-15T05:54:40.504Z,5.18
2023-04-15T05:57:09.232Z,5.18
2023-04-15T05:59:37.534Z,5.25
2023-04-15T06:02:05.800Z,5.30
2023-04-15T06:04:34.110Z,5.35
2023-04-15T06:07:02.574Z,5.40
2023-04-15T06:09:30.640Z,5.46
2023-04-15T06:11:59.138Z,5.53
2023-04-15T06:14:27.166Z,5.61
2023-04-15T06:16:55.192Z,5.65
2023-04-15T06:19:23.217Z,5.71
2023-04-15T06:21:51.193Z,5.79
2023-04-15T06:24:19.159Z,5.84
2023-04-15T06:26:47.186Z,5.93
2023-04-15T06:29:15.528Z,5.99
2023-04-15T06:31:43.446Z,6.07
2023-04-15T06:34:12.447Z,6.14
2023-04-15T06:36:40.386Z,6.17
2023-04-15T06:39:08.441Z,6.21
2023-04-15T06:41:36.873Z,6.28
2023-04-15T06:44:05.008Z,6.30
2023-04-15T06:46:33.033Z,6.34
2023-04-15T06:49:01.173Z,6.42
2023-04-15T06:51:29.436Z,6.48
2023-04-15T06:53:58.239Z,6.81
2023-04-15T06:56:26.326Z,7.17
2023-04-15T06:58:54.303Z,7.08
2023-04-15T07:01:22.891Z,7.13
2023-04-15T07:03:50.846Z,7.13
2023-04-15T07:06:18.939Z,7.11
2023-04-15T07:08:46.948Z,7.15
2023-04-15T07:11:15.551Z,7.18
2023-04-15T07:13:43.611Z,7.17
2023-04-15T07:16:11.668Z,7.23
2023-04-15T07:18:39.638Z,7.30
2023-04-15T07:21:07.655Z,7.35
2023-04-15T07:23:35.605Z,7.46
2023-04-15T07:26:04.368Z,7.50
2023-04-15T07:28:32.890Z,7.53
2023-04-15T07:31:01.012Z,7.56
2023-04-15T07:33:29.100Z,7.66
2023-04-15T07:35:57.103Z,7.79
2023-04-15T07:38:25.358Z,7.96
2023-04-15T07:40:53.346Z,8.06
2023-04-15T07:43:22.738Z,8.06
2023-04-15T07:45:50.682Z,8.10
2023-04-15T07:48:18.653Z,8.11
2023-04-15T07:50:46.830Z,8.09
2023-04-15T07:53:14.931Z,8.16
2023-04-15T07:55:42.895Z,8.22
2023-04-15T07:58:11.002Z,8.24
2023-04-15T08:00:39.929Z,8.25
2023-04-15T08:03:08.463Z,8.25
2023-04-15T08:05:36.704Z,8.15
2023-04-15T08:08:04.709Z,8.12
2023-04-15T08:10:32.931Z,8.16
2023-04-15T08:13:00.949Z,8.18
2023-04-15T08:15:29.836Z,8.18
2023-04-15T08:17:58.078Z,8.35
2023-04-15T08:20:26.598Z,8.76
2023-04-15T08:22:55.163Z,9.08
2023-04-15T08:25:23.240Z,9.19
2023-04-15T08:27:51.358Z,9.12
2023-04-15T08:30:19.854Z,9.15
2023-04-15T08:32:50.935Z,9.00
2023-04-15T08:35:19.088Z,8.87
2023-04-15T08:37:47.084Z,8.83
2023-04-15T08:40:15.593Z,8.89
2023-04-15T08:42:46.990Z,8.90
2023-04-15T08:45:15.412Z,8.97
2023-04-15T08:47:43.720Z,9.01
2023-04-15T08:50:13.263Z,8.96
2023-04-15T08:52:41.401Z,8.93
2023-04-15T08:55:09.774Z,9.02
2023-04-15T08:57:37.737Z,9.18
2023-04-15T09:00:06.255Z,9.23
2023-04-15T09:02:34.503Z,9.23
2023-04-15T09:05:03.719Z,9.33
2023-04-15T09:07:31.708Z,9.38
2023-04-15T09:10:00.012Z,9.53
2023-04-15T09:12:28.079Z,9.57
2023-04-15T09:14:56.253Z,9.58
2023-04-15T09:17:24.339Z,9.68
2023-04-15T09:20:15.308Z,9.84
2023-04-15T09:22:44.060Z,10.00
2023-04-15T09:25:24.013Z,10.16
2023-04-15T09:27:56.673Z,10.34
2023-04-15T09:30:25.175Z,10.46
2023-04-15T09:32:59.905Z,10.46
2023-04-15T09:35:31.622Z,10.55
2023-04-15T09:38:11.006Z,10.68
2023-04-15T09:40:40.426Z,10.76
2023-04-15T09:43:09.298Z,10.86
2023-04-15T09:45:37.818Z,10.74
2023-04-15T09:48:18.933Z,10.73
2023-04-15T09:50:47.022Z,10.70
2023-04-15T09:53:18.237Z,10.72
2023-04-15T09:55:56.720Z,10.76
2023-04-15T09:58:29.310Z,10.81
2023-04-15T10:00:58.149Z,10.86
2023-04-15T10:03:32.506Z,10.87
2023-04-15T10:06:01.610Z,10.88
2023-04-15T10:08:34.310Z,10.91
2023-04-15T10:11:06.186Z,10.92
2023-04-15T10:13:36.406Z,10.99
2023-04-15T10:16:11.332Z,11.13
2023-04-15T10:18:45.307Z,11.27
2023-04-15T10:21:15.385Z,11.38
2023-04-15T10:23:43.377Z,11.50
2023-04-15T10:26:11.419Z,11.58
2023-04-15T10:28:40.126Z,11.66
2023-04-15T10:31:08.711Z,11.73
2023-04-15T10:33:36.894Z,11.83
2023-04-15T10:36:05.280Z,11.92
2023-04-15T10:38:41.021Z,12.09
2023-04-15T10:41:22.290Z,12.23
2023-04-15T10:43:52.633Z,12.33
2023-04-15T10:46:44.301Z,12.45
2023-04-15T10:49:17.162Z,12.52
2023-04-15T10:51:47.439Z,12.58
2023-04-15T10:54:27.932Z,12.61
2023-04-15T10:57:03.086Z,12.71
2023-04-15T10:59:34.528Z,12.81
2023-04-15T11:02:04.715Z,13.00
2023-04-15T11:04:54.635Z,13.07
2023-04-15T11:07:38.443Z,13.11
2023-04-15T11:10:32.416Z,13.05
2023-04-15T11:13:04.820Z,13.03
2023-04-15T11:15:43.052Z,13.04
2023-04-15T11:18:17.731Z,13.14
2023-04-15T11:20:47.980Z,13.25
2023-04-15T11:23:16.712Z,13.43
2023-04-15T11:25:45.029Z,13.57
2023-04-15T11:28:13.753Z,13.76
2023-04-15T11:30:42.047Z,13.96
2023-04-15T11:33:11.153Z,14.05
2023-04-15T11:35:39.250Z,14.14
2023-04-15T11:38:07.624Z,14.31
2023-04-15T11:40:36.788Z,14.66
2023-04-15T11:43:15.500Z,14.99
2023-04-15T11:45:54.464Z,15.32
2023-04-15T11:48:24.581Z,15.25
2023-04-15T11:50:56.959Z,15.23
2023-04-15T11:53:25.578Z,15.49
2023-04-15T11:55:54.746Z,15.70
2023-04-15T11:58:26.777Z,15.72
2023-04-15T12:01:02.179Z,15.53
2023-04-15T12:03:31.675Z,15.32
2023-04-15T12:06:15.380Z,15.13
2023-04-15T12:09:11.306Z,15.12
2023-04-15T12:11:43.020Z,15.14
2023-04-15T12:14:14.655Z,15.13
2023-04-15T12:16:53.278Z,15.03
2023-04-15T12:19:26.645Z,14.89
2023-04-15T12:22:00.028Z,14.75
2023-04-15T12:24:28.665Z,14.64
2023-04-15T12:27:00.956Z,14.46
2023-04-15T12:29:29.961Z,14.33
2023-04-15T12:32:22.110Z,14.17
2023-04-15T12:34:53.996Z,14.12
2023-04-15T12:37:22.024Z,14.08
2023-04-15T12:39:50.882Z,14.03
2023-04-15T12:42:19.301Z,13.98
2023-04-15T12:44:47.446Z,13.92
2023-04-15T12:47:15.626Z,13.94
2023-04-15T12:49:43.923Z,13.96
2023-04-15T12:52:12.064Z,14.03
2023-04-15T12:54:40.727Z,14.13
2023-04-15T12:57:09.023Z,14.19
2023-04-15T12:59:37.617Z,14.15
2023-04-15T13:02:05.850Z,14.10
2023-04-15T13:04:34.123Z,14.07
2023-04-15T13:07:03.217Z,14.02
2023-04-15T13:09:31.391Z,13.95
2023-04-15T13:11:59.795Z,13.93
2023-04-15T13:14:28.492Z,13.93
2023-04-15T13:16:56.658Z,13.96
2023-04-15T13:19:24.765Z,14.00
2023-04-15T13:21:52.914Z,14.05
2023-04-15T13:24:20.967Z,14.10
2023-04-15T13:26:50.331Z,14.09
2023-04-15T13:29:19.571Z,14.10
2023-04-15T13:31:47.985Z,14.11
2023-04-15T13:34:16.108Z,14.12
2023-04-15T13:36:44.473Z,14.16
2023-04-15T13:39:12.739Z,14.20
2023-04-15T13:41:41.780Z,14.29
2023-04-15T13:44:09.819Z,14.33
2023-04-15T13:46:39.324Z,14.36
2023-04-15T13:49:07.501Z,14.37
2023-04-15T13:51:38.205Z,14.44
2023-04-15T13:54:06.520Z,14.62
2023-04-15T13:56:34.963Z,14.79
2023-04-15T13:59:04.489Z,14.93
2023-04-15T14:01:32.580Z,14.98
2023-04-15T14:04:00.847Z,15.25
2023-04-15T14:06:30.022Z,15.58
2023-04-15T14:08:58.232Z,15.89
2023-04-15T14:11:26.629Z,16.03
2023-04-15T14:13:55.189Z,15.76
2023-04-15T14:16:23.262Z,15.41
2023-04-15T14:18:51.664Z,15.27
2023-04-15T14:21:19.934Z,15.19
2023-04-15T14:23:48.026Z,15.12
2023-04-15T14:26:16.199Z,14.94
2023-04-15T14:28:46.186Z,14.86
2023-04-15T14:31:14.409Z,14.83
2023-04-15T14:33:42.611Z,14.79
2023-04-15T14:36:11.021Z,14.76
2023-04-15T14:38:42.734Z,14.74
2023-04-15T14:41:13.970Z,14.74
2023-04-15T14:43:42.239Z,14.68
2023-04-15T14:46:10.607Z,14.70
2023-04-15T14:48:39.050Z,14.64
2023-04-15T14:51:07.222Z,14.55
2023-04-15T14:53:35.317Z,14.38
2023-04-15T14:56:03.347Z,14.14
2023-04-15T15:01:12.285Z,14.13
2023-04-15T15:03:40.566Z,14.13
2023-04-15T15:06:08.888Z,13.91
2023-04-15T15:08:38.168Z,13.86
2023-04-15T15:11:06.170Z,13.70
2023-04-15T15:13:34.318Z,13.72
2023-04-15T15:16:02.364Z,13.64
2023-04-15T15:18:30.466Z,13.49
2023-04-15T15:20:58.618Z,13.41
2023-04-15T15:23:27.234Z,13.28
2023-04-15T15:25:55.228Z,13.19
2023-04-15T15:28:23.379Z,13.07
2023-04-15T15:30:51.411Z,12.98
2023-04-15T15:33:19.459Z,12.98
2023-04-15T15:35:47.707Z,12.92
2023-04-15T15:38:16.317Z,12.72
2023-04-15T15:40:44.349Z,12.74
2023-04-15T15:43:12.338Z,12.75
2023-04-15T15:45:40.385Z,12.70
2023-04-15T15:48:08.813Z,12.59
2023-04-15T15:50:37.256Z,12.57
2023-04-15T15:53:05.478Z,12.48
2023-04-15T15:55:33.590Z,12.29
2023-04-15T15:58:01.699Z,12.23
2023-04-15T16:00:29.801Z,12.26
2023-04-15T16:05:29.996Z,12.08
2023-04-15T16:07:57.941Z,12.04
2023-04-15T16:10:25.970Z,12.00
2023-04-15T16:12:54.047Z,11.84
2023-04-15T16:15:22.270Z,11.80
2023-04-15T16:17:53.552Z,11.62
2023-04-15T16:20:23.031Z,11.47
2023-04-15T16:22:51.351Z,11.52
2023-04-15T16:25:19.455Z,11.42
2023-04-15T16:30:16.099Z,11.27
2023-04-15T16:32:44.166Z,11.28
2023-04-15T16:35:13.112Z,11.25
2023-04-15T16:37:41.086Z,11.28
2023-04-15T16:40:09.725Z,11.17
2023-04-15T16:42:38.216Z,11.05
2023-04-15T16:45:06.738Z,11.07
2023-04-15T16:47:35.005Z,11.04
2023-04-15T16:50:03.174Z,11.03
2023-04-15T16:52:31.341Z,10.97
2023-04-15T16:54:59.460Z,11.02
2023-04-15T16:57:38.189Z,10.97
2023-04-15T17:00:16.351Z,10.99
2023-04-15T17:02:44.606Z,10.99
2023-04-15T17:05:12.784Z,10.96
2023-04-15T17:07:40.847Z,10.95
2023-04-15T17:10:09.357Z,10.96
2023-04-15T17:12:37.471Z,10.95
2023-04-15T17:15:05.819Z,10.93
2023-04-15T17:17:33.945Z,10.92
2023-04-15T17:20:01.988Z,10.92
2023-04-15T17:22:30.151Z,10.88
2023-04-15T17:24:58.170Z,10.87
2023-04-15T17:27:27.849Z,10.82
2023-04-15T17:29:56.008Z,10.81
2023-04-15T17:32:24.411Z,10.78
2023-04-15T17:34:52.663Z,10.78
2023-04-15T17:37:20.777Z,10.76
2023-04-15T17:39:48.878Z,10.79
2023-04-15T17:42:17.255Z,10.79
2023-04-15T17:44:45.196Z,10.77
2023-04-15T17:47:13.297Z,10.73
2023-04-15T17:49:41.346Z,10.69
2023-04-15T17:52:09.442Z,10.65
2023-04-15T17:54:37.425Z,10.64
2023-04-15T17:57:05.523Z,10.63
2023-04-15T17:59:35.098Z,10.57
2023-04-15T18:02:03.165Z,10.56
2023-04-15T18:04:31.562Z,10.57
2023-04-15T18:06:59.739Z,10.56
2023-04-15T18:09:28.748Z,10.49
2023-04-15T18:11:57.773Z,10.47
2023-04-15T18:14:34.298Z,10.41
2023-04-15T18:17:04.038Z,10.40
2023-04-15T18:19:32.296Z,10.32
2023-04-15T18:22:01.410Z,10.28
2023-04-15T18:24:29.629Z,10.25
2023-04-15T18:26:57.880Z,10.21
2023-04-15T18:29:26.786Z,10.20
2023-04-15T18:31:55.064Z,10.19
2023-04-15T18:34:23.166Z,10.11
2023-04-15T18:36:51.651Z,10.02
2023-04-15T18:39:19.806Z,10.01
2023-04-15T18:41:47.945Z,9.97
2023-04-15T18:44:16.041Z,9.93
2023-04-15T18:46:44.108Z,9.92
2023-04-15T18:49:13.254Z,9.86
2023-04-15T18:51:41.431Z,9.79
2023-04-15T18:54:09.640Z,9.82
2023-04-15T18:56:37.734Z,9.81
2023-04-15T18:59:08.543Z,9.78
2023-04-15T19:01:54.089Z,9.70
2023-04-15T19:04:22.300Z,9.63
2023-04-15T19:06:50.528Z,9.61
2023-04-15T19:09:18.760Z,9.63
2023-04-15T19:11:46.856Z,9.59
2023-04-15T19:14:15.118Z,9.58
2023-04-15T19:16:43.373Z,9.58
2023-04-15T19:19:11.582Z,9.57
2023-04-15T19:21:39.783Z,9.54
2023-04-15T19:24:08.227Z,9.55
2023-04-15T19:26:38.113Z,9.54
2023-04-15T19:29:06.575Z,9.55
2023-04-15T19:31:35.009Z,9.53
2023-04-15T19:34:03.352Z,9.52
2023-04-15T19:36:31.513Z,9.50
2023-04-15T19:39:01.964Z,9.47
2023-04-15T19:41:30.101Z,9.43
2023-04-15T19:43:58.266Z,9.39
2023-04-15T19:46:26.486Z,9.35
2023-04-15T19:48:54.721Z,9.34
2023-04-15T19:51:22.750Z,9.32
2023-04-15T19:53:51.121Z,9.27
2023-04-15T19:56:19.213Z,9.24
2023-04-15T19:58:52.268Z,9.18
2023-04-15T20:01:21.693Z,9.18
2023-04-15T20:03:50.200Z,9.12
2023-04-15T20:06:18.651Z,9.11
2023-04-15T20:08:46.953Z,9.08
2023-04-15T20:11:15.341Z,9.08
2023-04-15T20:13:43.444Z,9.04
2023-04-15T20:16:13.051Z,9.03
2023-04-15T20:18:41.019Z,8.99
2023-04-15T20:21:09.144Z,8.99
2023-04-15T20:23:37.450Z,8.95
2023-04-15T20:26:05.598Z,8.95
2023-04-15T20:28:33.950Z,8.90
2023-04-15T20:31:02.401Z,8.88
2023-04-15T20:33:30.631Z,8.88
2023-04-15T20:35:58.660Z,8.86
2023-04-15T20:38:26.608Z,8.87
2023-04-15T20:40:54.682Z,8.86
2023-04-15T20:43:23.274Z,8.84
2023-04-15T20:45:52.128Z,8.82
2023-04-15T20:48:20.522Z,8.70
2023-04-15T20:50:48.566Z,8.63
2023-04-15T20:53:16.664Z,8.58
2023-04-15T20:55:45.977Z,8.52
2023-04-15T20:58:14.062Z,8.47
2023-04-15T21:00:42.326Z,8.44
2023-04-15T21:03:10.499Z,8.45
2023-04-15T21:05:38.585Z,8.46
2023-04-15T21:08:06.829Z,8.45
2023-04-15T21:10:36.405Z,8.44
2023-04-15T21:13:04.440Z,8.47
2023-04-15T21:15:32.456Z,8.46
2023-04-15T21:18:01.451Z,8.46
2023-04-15T21:20:30.563Z,8.40
2023-04-15T21:22:58.523Z,8.39
2023-04-15T21:25:26.480Z,8.39
2023-04-15T21:27:54.662Z,8.37
2023-04-15T21:30:22.706Z,8.36
2023-04-15T21:32:50.753Z,8.34
2023-04-15T21:35:18.820Z,8.36
2023-04-15T21:37:46.897Z,8.37
2023-04-15T21:40:17.365Z,8.38
2023-04-15T21:42:45.528Z,8.39
2023-04-15T21:45:13.764Z,8.39
2023-04-15T21:47:59.731Z,8.38
2023-04-15T21:50:29.750Z,8.35
2023-04-15T21:52:57.768Z,8.33
2023-04-15T21:55:25.850Z,8.33
2023-04-15T21:57:53.808Z,8.29
2023-04-15T22:00:22.687Z,8.26
2023-04-15T22:02:50.750Z,8.25
2023-04-15T22:05:18.940Z,8.20
2023-04-15T22:07:46.965Z,8.20
2023-04-15T22:10:14.886Z,8.21
2023-04-15T22:12:45.854Z,8.21
2023-04-15T22:15:14.125Z,8.24
2023-04-15T22:17:42.147Z,8.23
2023-04-15T22:20:10.622Z,8.23
2023-04-15T22:22:44.411Z,8.26
2023-04-15T22:25:13.132Z,8.25
2023-04-15T22:27:41.103Z,8.26
2023-04-15T22:30:09.840Z,8.27
2023-04-15T22:32:38.201Z,8.22
2023-04-15T22:35:07.885Z,8.21
2023-04-15T22:37:35.822Z,8.21
2023-04-15T22:40:04.094Z,8.23
2023-04-15T22:42:32.203Z,8.25
2023-04-15T22:45:00.196Z,8.26
2023-04-15T22:47:28.475Z,8.26
2023-04-15T22:49:56.429Z,8.24
2023-04-15T22:52:30.698Z,8.22
2023-04-15T22:54:59.860Z,8.18
2023-04-15T22:57:29.217Z,8.19
2023-04-15T22:59:57.412Z,8.16
2023-04-15T23:02:25.529Z,8.17
2023-04-15T23:04:53.623Z,8.13
2023-04-15T23:07:21.738Z,8.13
2023-04-15T23:09:49.733Z,8.15
2023-04-15T23:12:17.604Z,8.13
2023-04-15T23:14:45.588Z,8.12
2023-04-15T23:17:13.611Z,8.11
2023-04-15T23:19:41.999Z,8.10
2023-04-15T23:22:11.901Z,8.05
2023-04-15T23:24:39.868Z,8.06
2023-04-15T23:27:07.915Z,8.03
2023-04-15T23:29:35.906Z,8.03
2023-04-15T23:32:03.982Z,8.03
2023-04-15T23:34:32.156Z,8.02
2023-04-15T23:37:00.157Z,7.99
2023-04-15T23:39:28.132Z,7.99
2023-04-15T23:41:56.066Z,7.99
2023-04-15T23:44:24.416Z,8.00
2023-04-15T23:46:52.787Z,7.98
2023-04-15T23:49:20.788Z,7.99
2023-04-15T23:51:48.801Z,8.00
2023-04-15T23:54:16.853Z,7.97
2023-04-15T23:56:44.850Z,8.00
2023-04-15T23:59:12.830Z,8.01
